createdAt,value
2019-02-22T00:00:52.738Z,80.06
2019-02-22T00:01:52.794Z,80.11
2019-02-22T00:02:52.735Z,79.91
2019-02-22T00:03:52.932Z,79.87
2019-02-22T00:04:52.736Z,79.87
2019-02-22T00:05:52.794Z,79.81
2019-02-22T00:06:52.731Z,79.68
2019-02-22T00:07:53.045Z,79.61
2019-02-22T00:08:52.997Z,79.71
2019-02-22T00:09:52.923Z,79.62
2019-02-22T00:10:52.665Z,79.51
2019-02-22T00:11:52.963Z,79.43
2019-02-22T00:12:53.457Z,79.49
2019-02-22T00:13:52.481Z,79.64
2019-02-22T00:14:52.480Z,79.6
2019-02-22T00:15:52.480Z,79.52
2019-02-22T00:16:52.999Z,79.44
2019-02-22T00:17:52.800Z,79.28
2019-02-22T00:18:53.064Z,79.47
2019-02-22T00:19:52.790Z,79.27
2019-02-22T00:20:52.769Z,79.22
2019-02-22T00:21:52.753Z,79.33
2019-02-22T00:22:53.016Z,79.35
2019-02-22T00:23:52.786Z,79.39
2019-02-22T00:24:52.617Z,79.09
2019-02-22T00:25:53.490Z,79.04
2019-02-22T00:26:53.283Z,79.16
2019-02-22T00:27:52.927Z,79.06
2019-02-22T00:28:53.502Z,79.32
2019-02-22T00:29:53.399Z,79.1
2019-02-22T00:30:52.983Z,79.11
2019-02-22T00:31:52.725Z,79.1
2019-02-22T00:32:52.955Z,79.17
2019-02-22T00:33:52.639Z,79.13
2019-02-22T00:34:53.980Z,79.44
2019-02-22T00:35:54.095Z,79.23
2019-02-22T00:36:52.901Z,79.12
2019-02-22T00:37:52.794Z,79.1
2019-02-22T00:41:52.802Z,79.11
2019-02-22T00:42:52.606Z,79.03
2019-02-22T00:43:53.479Z,79.25
2019-02-22T00:44:52.622Z,79.08
2019-02-22T00:45:52.687Z,79.47
2019-02-22T00:46:52.967Z,79.41
2019-02-22T00:47:52.718Z,79.45
2019-02-22T00:48:52.703Z,79.24
2019-02-22T00:49:52.694Z,79.18
2019-02-22T00:50:52.617Z,79.14
2019-02-22T00:51:53.546Z,79.22
2019-02-22T00:52:54.433Z,79.11
2019-02-22T00:53:53.173Z,79.13
2019-02-22T00:54:52.862Z,79.11
2019-02-22T00:55:52.722Z,79.13
2019-02-22T00:56:53.987Z,79.13
2019-02-22T00:57:52.752Z,79.18
2019-02-22T00:58:52.721Z,79.17
2019-02-22T00:59:52.718Z,79.13
2019-02-22T01:00:52.744Z,79.66
2019-02-22T01:01:53.655Z,80.12
2019-02-22T01:02:53.127Z,79.9
2019-02-22T01:03:52.803Z,79.68
2019-02-22T01:04:53.141Z,80.09
2019-02-22T01:05:52.581Z,79.71
2019-02-22T01:06:53.271Z,79.72
2019-02-22T01:07:52.717Z,79.68
2019-02-22T01:08:52.614Z,79.8
2019-02-22T01:09:53.020Z,79.9
2019-02-22T01:10:53.281Z,79.71
2019-02-22T01:11:52.701Z,79.55
2019-02-22T01:12:52.730Z,79.58
2019-02-22T01:13:52.594Z,79.56
2019-02-22T01:14:52.601Z,79.51
2019-02-22T01:15:52.731Z,79.47
2019-02-22T01:16:52.751Z,79.46
2019-02-22T01:17:52.587Z,79.48
2019-02-22T01:18:53.021Z,79.48
2019-02-22T01:19:54.010Z,79.82
2019-02-22T01:20:55.004Z,80.26
2019-02-22T01:21:52.550Z,80.61
2019-02-22T01:22:52.657Z,80.89
2019-02-22T01:23:52.633Z,81.53
2019-02-22T01:24:53.137Z,82.19
2019-02-22T01:25:52.807Z,82.21
2019-02-22T01:26:53.086Z,81.98
2019-02-22T01:27:52.649Z,82.18
2019-02-22T01:28:52.632Z,82.14
2019-02-22T01:29:52.827Z,82.08
2019-02-22T01:30:52.364Z,82.07
2019-02-22T01:31:52.671Z,81.72
2019-02-22T01:32:52.675Z,81.65
2019-02-22T01:33:54.514Z,81.63
2019-02-22T01:34:52.819Z,81.36
2019-02-22T01:35:52.573Z,81.68
2019-02-22T01:36:54.386Z,81.77
2019-02-22T01:37:52.607Z,81.37
2019-02-22T01:38:52.367Z,81.07
2019-02-22T01:39:52.374Z,81.07
2019-02-22T01:40:52.373Z,81.02
2019-02-22T01:41:52.362Z,80.96
2019-02-22T01:42:52.744Z,80.95
2019-02-22T01:43:52.545Z,80.71
2019-02-22T01:44:52.635Z,80.62
2019-02-22T01:45:53.057Z,80.51
2019-02-22T01:46:52.547Z,80.45
2019-02-22T01:47:52.718Z,80.42
2019-02-22T01:48:53.408Z,80.64
2019-02-22T01:49:52.744Z,81.16
2019-02-22T01:50:54.354Z,80.83
2019-02-22T01:51:54.369Z,81.32
2019-02-22T01:52:54.381Z,81.77
2019-02-22T01:53:54.273Z,81.24
2019-02-22T01:54:52.552Z,80.9
2019-02-22T01:55:54.377Z,80.76
2019-02-22T01:56:52.341Z,81.91
2019-02-22T01:57:52.353Z,81.48
2019-02-22T01:58:52.347Z,81.09
2019-02-22T01:59:52.343Z,81.56
2019-02-22T02:00:52.570Z,82.26
2019-02-22T02:01:54.350Z,81.57
2019-02-22T02:02:52.322Z,81.27
2019-02-22T02:03:52.332Z,81.02
2019-02-22T02:04:52.325Z,80.91
2019-02-22T02:05:52.579Z,81.16
2019-02-22T02:06:52.687Z,80.94
2019-02-22T02:07:52.939Z,81.68
2019-02-22T02:08:52.547Z,81.53
2019-02-22T02:09:52.629Z,82.04
2019-02-22T02:10:54.729Z,81.65
2019-02-22T02:11:52.535Z,81.27
2019-02-22T02:12:53.084Z,81.39
2019-02-22T02:13:52.611Z,81.25
2019-02-22T02:14:52.802Z,81.09
2019-02-22T02:15:52.580Z,81.2
2019-02-22T02:16:52.532Z,81.11
2019-02-22T02:17:52.907Z,81
2019-02-22T02:18:52.481Z,80.91
2019-02-22T02:19:52.509Z,80.9
2019-02-22T02:20:52.889Z,81.21
2019-02-22T02:21:52.585Z,81.22
2019-02-22T02:22:52.540Z,81.09
2019-02-22T02:23:52.946Z,80.99
2019-02-22T02:24:52.753Z,81.52
2019-02-22T02:25:52.970Z,82.34
2019-02-22T02:26:53.332Z,81.68
2019-02-22T02:27:54.312Z,81.33
2019-02-22T02:28:52.667Z,81.35
2019-02-22T02:29:52.479Z,81.37
2019-02-22T02:30:53.042Z,81.49
2019-02-22T02:31:54.301Z,81.2
2019-02-22T02:32:53.011Z,81.25
2019-02-22T02:33:52.697Z,81.77
2019-02-22T02:34:52.664Z,81.22
2019-02-22T02:35:52.886Z,81.61
2019-02-22T02:36:54.308Z,81.58
2019-02-22T02:37:54.301Z,81.62
2019-02-22T02:38:53.011Z,81.43
2019-02-22T02:39:52.675Z,81.23
2019-02-22T02:40:52.777Z,82.01
2019-02-22T02:41:52.535Z,81.74
2019-02-22T02:42:52.566Z,81.46
2019-02-22T02:43:52.297Z,81.33
2019-02-22T02:44:52.733Z,81.27
2019-02-22T02:45:52.511Z,81.46
2019-02-22T02:46:52.489Z,81.23
2019-02-22T02:47:53.408Z,81.63
2019-02-22T02:48:52.935Z,81.92
2019-02-22T02:49:52.565Z,81.44
2019-02-22T02:50:52.545Z,81.5
2019-02-22T02:51:52.832Z,81.74
2019-02-22T02:52:52.725Z,81.42
2019-02-22T02:53:52.697Z,81.28
2019-02-22T02:54:52.668Z,81.72
2019-02-22T02:55:52.483Z,81.84
2019-02-22T02:56:53.275Z,81.41
2019-02-22T02:57:52.502Z,81.49
2019-02-22T02:58:53.357Z,81.56
2019-02-22T02:59:54.284Z,81.51
2019-02-22T03:00:52.450Z,81.65
2019-02-22T03:01:52.683Z,81.99
2019-02-22T03:02:54.264Z,81.92
2019-02-22T03:03:54.616Z,82.23
2019-02-22T03:04:52.513Z,82.14
2019-02-22T03:05:52.769Z,81.71
2019-02-22T03:06:52.544Z,81.56
2019-02-22T03:07:52.531Z,81.31
2019-02-22T03:08:53.131Z,81.22
2019-02-22T03:09:52.951Z,81.13
2019-02-22T03:10:52.452Z,81.19
2019-02-22T03:11:52.557Z,81.28
2019-02-22T03:12:52.561Z,81.37
2019-02-22T03:13:53.006Z,81.48
2019-02-22T03:14:54.248Z,81.55
2019-02-22T03:15:52.764Z,81.09
2019-02-22T03:16:52.720Z,80.98
2019-02-22T03:17:52.691Z,81.42
2019-02-22T03:18:52.466Z,81.31
2019-02-22T03:19:53.296Z,81.42
2019-02-22T03:20:52.841Z,81.16
2019-02-22T03:21:52.405Z,81.22
2019-02-22T03:22:52.944Z,80.98
2019-02-22T03:23:52.523Z,80.99
2019-02-22T03:24:53.919Z,80.95
2019-02-22T03:25:52.607Z,80.75
2019-02-22T03:26:52.775Z,80.76
2019-02-22T03:27:52.867Z,80.74
2019-02-22T03:28:52.537Z,80.81
2019-02-22T03:29:52.776Z,80.54
2019-02-22T03:30:52.892Z,80.44
2019-02-22T03:31:52.592Z,80.48
2019-02-22T03:32:52.699Z,80.29
2019-02-22T03:33:52.644Z,80.33
2019-02-22T03:34:52.409Z,80.19
2019-02-22T03:35:52.536Z,80.23
2019-02-22T03:36:52.640Z,80.13
2019-02-22T03:37:52.446Z,80.11
2019-02-22T03:38:52.557Z,80.29
2019-02-22T03:39:52.410Z,80.06
2019-02-22T03:40:52.460Z,79.96
2019-02-22T03:41:52.643Z,79.9
2019-02-22T03:42:52.987Z,79.77
2019-02-22T03:43:52.565Z,79.53
2019-02-22T03:44:52.394Z,79.41
2019-02-22T03:45:53.070Z,79.51
2019-02-22T03:46:52.672Z,79.63
2019-02-22T03:47:52.386Z,79.57
2019-02-22T03:48:52.566Z,79.46
2019-02-22T03:49:52.700Z,79.44
2019-02-22T03:50:52.614Z,79.73
2019-02-22T03:51:53.074Z,79.55
2019-02-22T03:52:54.220Z,79.53
2019-02-22T03:53:52.425Z,79.72
2019-02-22T03:54:52.559Z,79.57
2019-02-22T03:55:52.750Z,79.8
2019-02-22T03:56:52.549Z,79.56
2019-02-22T03:57:52.641Z,79.49
2019-02-22T03:58:52.476Z,79.39
2019-02-22T03:59:53.015Z,79.54
2019-02-22T04:00:52.450Z,79.37
2019-02-22T04:01:52.680Z,79.32
2019-02-22T04:02:52.434Z,79.4
2019-02-22T04:03:52.365Z,79.4
2019-02-22T04:04:52.439Z,79.4
2019-02-22T04:05:52.506Z,79.45
2019-02-22T04:06:52.411Z,79.39
2019-02-22T04:07:52.435Z,79.55
2019-02-22T04:08:52.408Z,79.45
2019-02-22T04:09:52.761Z,79.41
2019-02-22T04:10:52.753Z,79.47
2019-02-22T04:11:52.658Z,79.42
2019-02-22T04:12:52.362Z,79.36
2019-02-22T04:13:53.120Z,79.36
2019-02-22T04:14:52.885Z,79.3
2019-02-22T04:15:52.490Z,79.24
2019-02-22T04:16:52.995Z,79.21
2019-02-22T04:17:52.398Z,79.28
2019-02-22T04:18:52.688Z,79.4
2019-02-22T04:19:52.309Z,79.45
2019-02-22T04:20:53.285Z,79.34
2019-02-22T04:21:52.385Z,79.46
2019-02-22T04:22:52.619Z,79.42
2019-02-22T04:23:52.380Z,79.5
2019-02-22T04:24:52.301Z,79.44
2019-02-22T04:25:52.373Z,79.41
2019-02-22T04:26:52.357Z,79.39
2019-02-22T04:27:52.859Z,79.46
2019-02-22T04:28:52.440Z,79.42
2019-02-22T04:29:52.435Z,79.37
2019-02-22T04:30:52.436Z,79.72
2019-02-22T04:31:52.582Z,79.7
2019-02-22T04:32:52.297Z,79.63
2019-02-22T04:33:52.355Z,79.55
2019-02-22T04:34:52.392Z,79.55
2019-02-22T04:35:53.617Z,79.55
2019-02-22T04:36:54.143Z,79.49
2019-02-22T04:37:52.733Z,79.4
2019-02-22T04:38:52.797Z,79.52
2019-02-22T04:39:52.294Z,79.55
2019-02-22T04:40:52.492Z,79.67
2019-02-22T04:41:58.696Z,79.53
2019-02-22T04:42:52.395Z,79.52
2019-02-22T04:43:52.452Z,79.64
2019-02-22T04:44:52.303Z,79.49
2019-02-22T04:45:52.569Z,79.51
2019-02-22T04:46:52.431Z,79.63
2019-02-22T04:47:52.469Z,79.55
2019-02-22T04:48:52.362Z,79.5
2019-02-22T04:49:54.140Z,79.56
2019-02-22T04:50:52.993Z,79.58
2019-02-22T04:51:54.127Z,79.74
2019-02-22T04:52:52.731Z,79.75
2019-02-22T04:53:52.322Z,79.82
2019-02-22T04:54:52.642Z,79.76
2019-02-22T04:55:52.636Z,79.7
2019-02-22T04:56:52.930Z,79.73
2019-02-22T04:57:53.776Z,79.87
2019-02-22T04:58:52.393Z,79.86
2019-02-22T04:59:53.195Z,79.81
2019-02-22T05:00:53.142Z,79.78
2019-02-22T05:01:52.380Z,80.2
2019-02-22T05:02:52.426Z,80.2
2019-02-22T05:03:52.413Z,80.43
2019-02-22T05:04:52.371Z,80.28
2019-02-22T05:05:52.584Z,80.14
2019-02-22T05:06:52.493Z,80.82
2019-02-22T05:07:52.659Z,80.8
2019-02-22T05:08:52.622Z,80.45
2019-02-22T05:09:52.349Z,80.55
2019-02-22T05:10:52.631Z,80.7
2019-02-22T05:11:52.630Z,80.62
2019-02-22T05:12:54.122Z,80.47
2019-02-22T05:13:53.107Z,80.39
2019-02-22T05:14:53.562Z,80.25
2019-02-22T05:15:52.672Z,80.3
2019-02-22T05:16:53.821Z,80.37
2019-02-22T05:17:52.335Z,80.3
2019-02-22T05:18:53.787Z,80.4
2019-02-22T05:19:52.229Z,80.71
2019-02-22T05:20:52.599Z,80.77
2019-02-22T05:21:52.327Z,80.76
2019-02-22T05:23:07.749Z,80.72
2019-02-22T05:23:53.175Z,80.49
2019-02-22T05:24:52.644Z,80.34
2019-02-22T05:25:52.763Z,80.3
2019-02-22T05:26:53.046Z,80.25
2019-02-22T05:27:52.667Z,80.27
2019-02-22T05:28:52.537Z,80.8
2019-02-22T05:29:52.415Z,81.03
2019-02-22T05:30:52.320Z,80.9
2019-02-22T05:31:52.385Z,80.92
2019-02-22T05:32:52.571Z,80.76
2019-02-22T05:33:52.378Z,80.67
2019-02-22T05:34:52.234Z,80.71
2019-02-22T05:35:52.503Z,80.49
2019-02-22T05:36:52.505Z,80.61
2019-02-22T05:37:52.345Z,80.75
2019-02-22T05:38:52.402Z,80.49
2019-02-22T05:39:53.049Z,80.49
2019-02-22T05:40:52.952Z,80.74
2019-02-22T05:41:52.336Z,80.92
2019-02-22T05:42:52.265Z,81.25
2019-02-22T05:43:52.852Z,81.93
2019-02-22T05:44:54.040Z,81.86
2019-02-22T05:45:53.104Z,81.57
2019-02-22T05:47:00.964Z,81.38
2019-02-22T05:47:52.460Z,81.46
2019-02-22T05:48:52.253Z,81.32
2019-02-22T05:49:53.296Z,81.54
2019-02-22T05:50:52.294Z,81.68
2019-02-22T05:51:52.228Z,81.33
2019-02-22T05:52:52.540Z,81.12
2019-02-22T05:53:52.526Z,81.22
2019-02-22T05:54:54.034Z,81.47
2019-02-22T05:55:52.281Z,81.2
2019-02-22T05:56:55.544Z,81.12
2019-02-22T05:57:52.430Z,80.92
2019-02-22T05:58:52.190Z,80.92
2019-02-22T05:59:52.857Z,80.95
2019-02-22T06:00:52.008Z,80.98
2019-02-22T06:01:52.902Z,80.95
2019-02-22T06:02:52.361Z,80.82
2019-02-22T06:03:52.578Z,81.44
2019-02-22T06:04:52.365Z,81.43
2019-02-22T06:05:52.686Z,81.57
2019-02-22T06:06:54.008Z,81.32
2019-02-22T06:07:52.427Z,81.09
2019-02-22T06:08:52.627Z,81.43
2019-02-22T06:09:54.023Z,81.02
2019-02-22T06:10:52.512Z,80.98
2019-02-22T06:11:52.537Z,81.19
2019-02-22T06:12:53.088Z,81.03
2019-02-22T06:13:52.242Z,80.93
2019-02-22T06:14:52.287Z,81.23
2019-02-22T06:15:52.164Z,81.25
2019-02-22T06:16:52.566Z,81.43
2019-02-22T06:17:53.689Z,81.28
2019-02-22T06:18:52.365Z,81.94
2019-02-22T06:19:52.874Z,82.02
2019-02-22T06:20:52.580Z,82.22
2019-02-22T06:21:53.176Z,82.29
2019-02-22T06:22:54.001Z,82.03
2019-02-22T06:23:53.171Z,82.32
2019-02-22T06:24:52.513Z,82.33
2019-02-22T06:25:52.574Z,81.82
2019-02-22T06:26:52.370Z,81.65
2019-02-22T06:27:52.581Z,81.98
2019-02-22T06:28:52.642Z,82.31
2019-02-22T06:29:52.530Z,81.85
2019-02-22T06:30:52.674Z,81.71
2019-02-22T06:31:52.214Z,82.13
2019-02-22T06:32:52.252Z,81.74
2019-02-22T06:33:52.289Z,81.64
2019-02-22T06:34:52.467Z,81.61
2019-02-22T06:35:52.226Z,81.6
2019-02-22T06:37:03.738Z,81.66
2019-02-22T06:37:53.980Z,81.71
2019-02-22T06:38:52.427Z,81.91
2019-02-22T06:39:51.961Z,81.67
2019-02-22T06:40:51.986Z,82.17
2019-02-22T06:41:51.967Z,82.45
2019-02-22T06:42:52.319Z,82.73
2019-02-22T06:43:52.431Z,82.75
2019-02-22T06:44:52.755Z,83.03
2019-02-22T06:45:52.091Z,82.49
2019-02-22T06:46:52.157Z,82.28
2019-02-22T06:47:52.358Z,82.13
2019-02-22T06:48:52.213Z,82.27
2019-02-22T06:49:52.381Z,82.57
2019-02-22T06:50:53.108Z,82.15
2019-02-22T06:51:52.268Z,82.32
2019-02-22T06:52:51.934Z,82.92
2019-02-22T06:53:52.402Z,82.44
2019-02-22T06:54:53.022Z,83.14
2019-02-22T06:55:52.171Z,83.67
2019-02-22T06:56:52.216Z,83.55
2019-02-22T06:57:52.815Z,82.88
2019-02-22T06:58:52.230Z,82.83
2019-02-22T06:59:52.169Z,82.79
2019-02-22T07:00:52.450Z,82.54
2019-02-22T07:01:52.351Z,82.67
2019-02-22T07:02:52.100Z,82.56
2019-02-22T07:03:52.183Z,83.52
2019-02-22T07:04:52.476Z,83.73
2019-02-22T07:05:52.790Z,83.4
2019-02-22T07:06:53.959Z,83.96
2019-02-22T07:07:52.237Z,83.86
2019-02-22T07:08:52.604Z,83.61
2019-02-22T07:09:52.291Z,83.74
2019-02-22T07:10:52.771Z,83.16
2019-02-22T07:11:52.523Z,83.38
2019-02-22T07:12:57.684Z,83.07
2019-02-22T07:13:52.435Z,82.92
2019-02-22T07:14:52.327Z,82.93
2019-02-22T07:15:52.159Z,82.68
2019-02-22T07:16:52.086Z,82.61
2019-02-22T07:17:51.903Z,83.39
2019-02-22T07:18:52.664Z,83.86
2019-02-22T07:19:52.668Z,83.83
2019-02-22T07:20:52.470Z,83.74
2019-02-22T07:21:53.455Z,83.62
2019-02-22T07:22:53.908Z,83.67
2019-02-22T07:23:52.503Z,83.72
2019-02-22T07:24:52.243Z,83.55
2019-02-22T07:25:52.251Z,83.44
2019-02-22T07:26:52.623Z,83.61
2019-02-22T07:27:52.425Z,83.5
2019-02-22T07:28:52.971Z,83.52
2019-02-22T07:29:53.898Z,83.27
2019-02-22T07:30:52.299Z,83.23
2019-02-22T07:32:06.615Z,83.11
2019-02-22T07:32:52.530Z,83.04
2019-02-22T07:33:52.694Z,83.03
2019-02-22T07:34:52.260Z,83.01
2019-02-22T07:35:52.180Z,83.08
2019-02-22T07:36:52.228Z,83.02
2019-02-22T07:37:52.233Z,83.08
2019-02-22T07:38:52.501Z,83.12
2019-02-22T07:39:53.897Z,83.23
2019-02-22T07:40:52.959Z,83.17
2019-02-22T07:41:52.054Z,83.26
2019-02-22T07:42:52.516Z,83.25
2019-02-22T07:43:52.415Z,83.25
2019-02-22T07:44:52.153Z,83.32
2019-02-22T07:45:52.446Z,83.32
2019-02-22T07:46:52.439Z,83.4
2019-02-22T07:47:52.574Z,83.31
2019-02-22T07:48:53.036Z,83.4
2019-02-22T07:49:52.680Z,83.25
2019-02-22T07:50:58.728Z,83.32
2019-02-22T07:51:54.089Z,83.46
2019-02-22T07:52:53.873Z,83.45
2019-02-22T07:53:52.390Z,83.31
2019-02-22T07:54:53.859Z,83.25
2019-02-22T07:55:52.093Z,83.42
2019-02-22T07:56:53.906Z,83.38
2019-02-22T07:57:51.843Z,83.43
2019-02-22T07:58:51.854Z,83.36
2019-02-22T07:59:52.216Z,83.24
2019-02-22T08:00:52.336Z,83.24
2019-02-22T08:01:52.162Z,83.1
2019-02-22T08:02:53.887Z,83.22
2019-02-22T08:03:52.381Z,82.99
2019-02-22T08:04:53.846Z,83.11
2019-02-22T08:05:52.269Z,83.02
2019-02-22T08:06:52.884Z,83.08
2019-02-22T08:07:52.232Z,82.99
2019-02-22T08:08:52.292Z,82.97
2019-02-22T08:09:52.064Z,83.06
2019-02-22T08:10:52.143Z,83
2019-02-22T08:11:52.554Z,82.69
2019-02-22T08:12:53.210Z,82.57
2019-02-22T08:13:52.631Z,82.54
2019-02-22T08:14:52.079Z,82.82
2019-02-22T08:15:52.228Z,82.44
2019-02-22T08:16:52.356Z,82.56
2019-02-22T08:17:52.648Z,82.54
2019-02-22T08:19:02.194Z,82.34
2019-02-22T08:19:52.373Z,82.48
2019-02-22T08:20:52.389Z,82.44
2019-02-22T08:21:53.231Z,82.16
2019-02-22T08:22:51.982Z,82.22
2019-02-22T08:23:52.550Z,82.22
2019-02-22T08:24:52.076Z,82.18
2019-02-22T08:25:52.817Z,82.14
2019-02-22T08:26:52.139Z,82.19
2019-02-22T08:27:54.644Z,82.02
2019-02-22T08:28:52.327Z,82.24
2019-02-22T08:29:52.315Z,82.11
2019-02-22T08:30:52.447Z,81.88
2019-02-22T08:32:53.211Z,81.68
2019-02-22T08:33:52.554Z,81.61
2019-02-22T08:34:52.758Z,81.56
2019-02-22T08:35:53.846Z,81.63
2019-02-22T08:36:52.022Z,81.61
2019-02-22T08:37:52.273Z,81.71
2019-02-22T08:38:51.980Z,81.65
2019-02-22T08:40:02.126Z,81.57
2019-02-22T08:40:52.407Z,81.64
2019-02-22T08:41:52.196Z,81.68
2019-02-22T08:42:52.067Z,81.41
2019-02-22T08:43:52.518Z,81.36
2019-02-22T08:44:52.525Z,81.48
2019-02-22T08:45:52.077Z,81.43
2019-02-22T08:46:52.058Z,81.2
2019-02-22T08:47:53.054Z,81.32
2019-02-22T08:48:52.455Z,81.5
2019-02-22T08:49:52.099Z,81.58
2019-02-22T08:50:52.475Z,81.36
2019-02-22T08:51:52.783Z,81.3
2019-02-22T08:52:51.970Z,81.18
2019-02-22T08:53:52.378Z,81.1
2019-02-22T08:54:52.036Z,81.19
2019-02-22T08:55:52.065Z,81.34
2019-02-22T08:56:53.191Z,81.14
2019-02-22T08:57:52.511Z,81.34
2019-02-22T08:58:52.049Z,81.01
2019-02-22T08:59:52.091Z,81.06
2019-02-22T09:00:52.214Z,81.14
2019-02-22T09:01:52.185Z,80.82
2019-02-22T09:02:52.137Z,80.86
2019-02-22T09:03:53.834Z,80.86
2019-02-22T09:04:52.019Z,80.63
2019-02-22T09:05:52.268Z,80.65
2019-02-22T09:06:52.737Z,80.61
2019-02-22T09:07:52.840Z,80.65
2019-02-22T09:08:52.698Z,80.58
2019-02-22T09:09:52.385Z,80.56
2019-02-22T09:11:01.113Z,80.47
2019-02-22T09:11:52.126Z,80.49
2019-02-22T09:12:51.967Z,80.5
2019-02-22T09:13:52.061Z,80.52
2019-02-22T09:14:52.034Z,80.28
2019-02-22T09:15:52.741Z,80.66
2019-02-22T09:16:52.010Z,80.44
2019-02-22T09:17:52.112Z,80.31
2019-02-22T09:18:53.065Z,80.39
2019-02-22T09:19:52.167Z,80.43
2019-02-22T09:20:52.260Z,80.25
2019-02-22T09:21:53.742Z,80.32
2019-02-22T09:22:52.074Z,80.25
2019-02-22T09:23:52.223Z,80.18
2019-02-22T09:24:52.483Z,80.37
2019-02-22T09:25:52.191Z,80.24
2019-02-22T09:26:51.977Z,80.24
2019-02-22T09:27:52.419Z,80.03
2019-02-22T09:28:52.231Z,80.13
2019-02-22T09:29:59.381Z,80.02
2019-02-22T09:30:52.430Z,80.1
2019-02-22T09:31:51.967Z,80.22
2019-02-22T09:32:52.753Z,80.2
2019-02-22T09:33:52.031Z,80
2019-02-22T09:34:52.049Z,80.09
2019-02-22T09:35:52.147Z,79.82
2019-02-22T09:36:52.183Z,79.88
2019-02-22T09:37:52.124Z,79.71
2019-02-22T09:38:51.951Z,79.71
2019-02-22T09:39:51.872Z,79.71
2019-02-22T09:40:52.558Z,79.84
2019-02-22T09:41:53.617Z,79.54
2019-02-22T09:42:52.301Z,79.32
2019-02-22T09:43:56.128Z,79.54
2019-02-22T09:44:52.208Z,79.45
2019-02-22T09:45:52.111Z,79.66
2019-02-22T09:46:52.051Z,79.51
2019-02-22T09:47:52.135Z,79.27
2019-02-22T09:48:52.445Z,78.99
2019-02-22T09:49:51.862Z,79.27
2019-02-22T09:50:52.258Z,79.15
2019-02-22T09:51:51.978Z,79.1
2019-02-22T09:52:52.007Z,79.24
2019-02-22T09:53:53.733Z,78.84
2019-02-22T09:54:52.067Z,79.06
2019-02-22T09:55:52.321Z,78.96
2019-02-22T09:56:53.706Z,79.24
2019-02-22T09:57:51.952Z,79.24
2019-02-22T09:58:52.458Z,79.26
2019-02-22T09:59:52.261Z,79.39
2019-02-22T10:00:52.315Z,79.3
2019-02-22T10:01:52.229Z,79.02
2019-02-22T10:02:52.807Z,78.56
2019-02-22T10:03:52.446Z,78.65
2019-02-22T10:04:55.796Z,78.64
2019-02-22T10:05:51.845Z,79
2019-02-22T10:06:52.009Z,78.77
2019-02-22T10:07:52.161Z,78.66
2019-02-22T10:08:52.167Z,78.46
2019-02-22T10:09:52.179Z,78.58
2019-02-22T10:10:52.196Z,78.66
2019-02-22T10:11:52.191Z,78.68
2019-02-22T10:12:52.409Z,78.18
2019-02-22T10:13:52.154Z,78.48
2019-02-22T10:14:52.214Z,77.9
2019-02-22T10:15:53.685Z,78.23
2019-02-22T10:16:52.097Z,78.13
2019-02-22T10:17:52.151Z,78.32
2019-02-22T10:18:52.243Z,78.28
2019-02-22T10:19:52.042Z,77.97
2019-02-22T10:20:52.058Z,78.23
2019-02-22T10:21:52.364Z,78.24
2019-02-22T10:22:52.464Z,78.04
2019-02-22T10:23:51.842Z,77.4
2019-02-22T10:24:52.112Z,77.03
2019-02-22T10:25:52.929Z,77.29
2019-02-22T10:26:52.029Z,77.17
2019-02-22T10:27:51.983Z,76.82
2019-02-22T10:28:52.021Z,76.91
2019-02-22T10:29:52.153Z,76.91
2019-02-22T10:30:51.916Z,76.71
2019-02-22T10:31:52.226Z,76.6
2019-02-22T10:32:53.679Z,76.65
2019-02-22T10:33:52.129Z,76.66
2019-02-22T10:34:51.989Z,76.65
2019-02-22T10:35:52.100Z,76.65
2019-02-22T10:36:52.054Z,76.64
2019-02-22T10:37:51.984Z,76.91
2019-02-22T10:38:52.069Z,77.12
2019-02-22T10:39:51.846Z,77.01
2019-02-22T10:40:52.652Z,77.17
2019-02-22T10:41:51.987Z,77.19
2019-02-22T10:42:53.653Z,76.77
2019-02-22T10:43:53.646Z,76.71
2019-02-22T10:44:51.969Z,75.9
2019-02-22T10:45:52.105Z,76.07
2019-02-22T10:46:52.829Z,76.15
2019-02-22T10:47:52.947Z,75.69
2019-02-22T10:48:52.962Z,75.85
2019-02-22T10:49:52.641Z,74.76
2019-02-22T10:50:51.805Z,75.04
2019-02-22T10:51:52.118Z,74.82
2019-02-22T10:53:02.730Z,74.66
2019-02-22T10:53:51.935Z,74.73
2019-02-22T10:54:51.833Z,75.13
2019-02-22T10:55:51.827Z,75.03
2019-02-22T10:56:52.095Z,74.59
2019-02-22T10:57:52.188Z,74.57
2019-02-22T10:58:51.917Z,74.71
2019-02-22T10:59:52.302Z,74.63
2019-02-22T11:00:52.022Z,74.71
2019-02-22T11:01:52.521Z,74.01
2019-02-22T11:02:53.623Z,74.14
2019-02-22T11:03:52.123Z,74.08
2019-02-22T11:04:52.411Z,74.41
2019-02-22T11:05:53.634Z,74.4
2019-02-22T11:06:52.034Z,74.32
2019-02-22T11:07:52.557Z,74.31
2019-02-22T11:08:52.074Z,74.52
2019-02-22T11:09:52.716Z,74.15
2019-02-22T11:10:52.683Z,73.84
2019-02-22T11:11:52.181Z,73.5
2019-02-22T11:12:52.082Z,73.79
2019-02-22T11:13:52.084Z,73.73
2019-02-22T11:14:51.888Z,73.76
2019-02-22T11:15:53.587Z,73.63
2019-02-22T11:16:51.745Z,73.13
2019-02-22T11:17:52.233Z,72.65
2019-02-22T11:18:52.117Z,72.26
2019-02-22T11:19:52.164Z,72.41
2019-02-22T11:20:51.954Z,72.62
2019-02-22T11:21:52.139Z,72.83
2019-02-22T11:22:52.253Z,72.76
2019-02-22T11:23:52.150Z,72.34
2019-02-22T11:24:53.590Z,72.75
2019-02-22T11:25:52.167Z,73.34
2019-02-22T11:26:52.112Z,73.92
2019-02-22T11:27:51.768Z,74.08
2019-02-22T11:28:52.087Z,74.17
2019-02-22T11:29:51.764Z,74.21
2019-02-22T11:30:52.022Z,74.27
2019-02-22T11:31:52.112Z,73.89
2019-02-22T11:32:52.535Z,73.88
2019-02-22T11:33:52.130Z,73.73
2019-02-22T11:34:52.030Z,74.12
2019-02-22T11:35:51.783Z,74.25
2019-02-22T11:36:52.039Z,73.59
2019-02-22T11:37:52.164Z,73.14
2019-02-22T11:38:53.588Z,70.59
2019-02-22T11:39:51.761Z,70.59
2019-02-22T11:40:52.344Z,71.18
2019-02-22T11:41:52.075Z,71.6
2019-02-22T11:42:52.307Z,71.39
2019-02-22T11:43:51.961Z,71.46
2019-02-22T11:44:51.768Z,71.07
2019-02-22T11:45:52.445Z,71.58
2019-02-22T11:46:51.756Z,70.45
2019-02-22T11:47:52.045Z,70.83
2019-02-22T11:48:53.565Z,71.04
2019-02-22T11:49:51.544Z,70.9
2019-02-22T11:50:52.136Z,70.88
2019-02-22T11:51:52.004Z,70.79
2019-02-22T11:52:51.931Z,70.97
2019-02-22T11:53:51.973Z,71.02
2019-02-22T11:54:53.552Z,71.14
2019-02-22T11:55:51.974Z,70.91
2019-02-22T11:56:51.984Z,70.36
2019-02-22T11:57:52.089Z,70.27
2019-02-22T11:58:51.669Z,69.82
2019-02-22T11:59:51.907Z,69.48
2019-02-22T12:00:52.071Z,69.29
2019-02-22T12:01:52.004Z,70.11
2019-02-22T12:02:52.012Z,70.02
2019-02-22T12:03:51.820Z,69.79
2019-02-22T12:04:52.025Z,69.49
2019-02-22T12:05:52.329Z,68.36
2019-02-22T12:06:51.971Z,66.69
2019-02-22T12:07:51.697Z,66.07
2019-02-22T12:08:51.893Z,66.61
2019-02-22T12:09:52.154Z,67.29
2019-02-22T12:10:51.965Z,66.9
2019-02-22T12:11:52.123Z,66.71
2019-02-22T12:12:51.763Z,66.83
2019-02-22T12:13:51.873Z,66.1
2019-02-22T12:14:52.607Z,66.1
2019-02-22T12:15:51.940Z,66.08
2019-02-22T12:16:52.921Z,66.3
2019-02-22T12:17:52.418Z,66.01
2019-02-22T12:18:52.710Z,66.15
2019-02-22T12:19:51.864Z,66.12
2019-02-22T12:20:51.865Z,66.55
2019-02-22T12:21:51.764Z,65.98
2019-02-22T12:22:51.801Z,65.07
2019-02-22T12:23:53.544Z,65.17
2019-02-22T12:24:51.742Z,65.42
2019-02-22T12:25:51.790Z,64.61
2019-02-22T12:26:51.792Z,65.01
2019-02-22T12:27:52.082Z,64.68
2019-02-22T12:28:52.185Z,63.97
2019-02-22T12:29:51.718Z,63.91
2019-02-22T12:30:51.826Z,62.9
2019-02-22T12:31:52.108Z,61.64
2019-02-22T12:32:52.103Z,61.2
2019-02-22T12:33:51.775Z,61.92
2019-02-22T12:34:52.217Z,61.05
2019-02-22T12:35:51.789Z,61.43
2019-02-22T12:36:52.084Z,61.84
2019-02-22T12:37:51.792Z,61.91
2019-02-22T12:38:52.261Z,61.77
2019-02-22T12:39:52.152Z,61.5
2019-02-22T12:40:52.163Z,60.67
2019-02-22T12:41:53.974Z,60.62
2019-02-22T12:42:51.778Z,60.4
2019-02-22T12:43:52.301Z,60.27
2019-02-22T12:45:03.742Z,60.42
2019-02-22T12:45:51.743Z,60.4
2019-02-22T12:46:52.672Z,60.58
2019-02-22T12:47:51.744Z,59.6
2019-02-22T12:48:52.011Z,59.55
2019-02-22T12:49:51.726Z,59.69
2019-02-22T12:50:52.437Z,60.48
2019-02-22T12:51:52.028Z,59.26
2019-02-22T12:52:52.050Z,58.71
2019-02-22T12:53:52.143Z,58.85
2019-02-22T12:54:51.601Z,58.52
2019-02-22T12:55:51.746Z,58.1
2019-02-22T12:56:58.686Z,58.58
2019-02-22T12:57:51.705Z,58.4
2019-02-22T12:58:51.667Z,57.84
2019-02-22T12:59:51.881Z,58.34